sensor_id;sensor_type;location;lat;lon;timestamp;P1;durP1;ratioP1;P2;durP2;ratioP2
48534;SDS011;34323;52.022;5.686;2023-03-26T00:01:16;19.48;;;4.03;;
48534;SDS011;34323;52.022;5.686;2023-03-26T00:03:45;12.82;;;4.20;;
48534;SDS011;34323;52.022;5.686;2023-03-26T00:06:17;12.45;;;3.67;;
48534;SDS011;34323;52.022;5.686;2023-03-26T00:08:46;12.02;;;3.38;;
48534;SDS011;34323;52.022;5.686;2023-03-26T00:11:13;16.98;;;4.10;;
48534;SDS011;34323;52.022;5.686;2023-03-26T00:13:41;16.80;;;3.75;;
48534;SDS011;34323;52.022;5.686;2023-03-26T00:16:08;13.63;;;2.78;;
48534;SDS011;34323;52.022;5.686;2023-03-26T00:18:34;11.30;;;2.63;;
48534;SDS011;34323;52.022;5.686;2023-03-26T00:21:02;16.70;;;2.42;;
48534;SDS011;34323;52.022;5.686;2023-03-26T00:23:30;20.02;;;2.85;;
48534;SDS011;34323;52.022;5.686;2023-03-26T00:25:57;10.75;;;2.33;;
48534;SDS011;34323;52.022;5.686;2023-03-26T00:28:22;13.73;;;2.65;;
48534;SDS011;34323;52.022;5.686;2023-03-26T00:30:56;21.63;;;2.90;;
48534;SDS011;34323;52.022;5.686;2023-03-26T00:33:26;23.83;;;2.75;;
48534;SDS011;34323;52.022;5.686;2023-03-26T00:35:53;15.75;;;3.38;;
48534;SDS011;34323;52.022;5.686;2023-03-26T00:38:20;20.63;;;2.58;;
48534;SDS011;34323;52.022;5.686;2023-03-26T00:40:48;14.35;;;2.85;;
48534;SDS011;34323;52.022;5.686;2023-03-26T00:43:15;20.42;;;3.60;;
48534;SDS011;34323;52.022;5.686;2023-03-26T00:45:45;13.30;;;2.90;;
48534;SDS011;34323;52.022;5.686;2023-03-26T00:48:11;19.67;;;4.32;;
48534;SDS011;34323;52.022;5.686;2023-03-26T00:50:37;22.33;;;4.53;;
48534;SDS011;34323;52.022;5.686;2023-03-26T00:53:03;22.63;;;3.88;;
48534;SDS011;34323;52.022;5.686;2023-03-26T00:55:29;25.23;;;3.95;;
48534;SDS011;34323;52.022;5.686;2023-03-26T00:57:54;25.33;;;4.22;;
48534;SDS011;34323;52.022;5.686;2023-03-26T01:00:27;22.88;;;4.50;;
48534;SDS011;34323;52.022;5.686;2023-03-26T01:02:56;27.20;;;4.40;;
48534;SDS011;34323;52.022;5.686;2023-03-26T01:08:00;30.42;;;5.68;;
48534;SDS011;34323;52.022;5.686;2023-03-26T01:10:39;33.55;;;4.75;;
48534;SDS011;34323;52.022;5.686;2023-03-26T01:13:05;30.80;;;5.25;;
48534;SDS011;34323;52.022;5.686;2023-03-26T01:15:31;32.35;;;6.90;;
48534;SDS011;34323;52.022;5.686;2023-03-26T01:17:57;29.80;;;5.55;;
48534;SDS011;34323;52.022;5.686;2023-03-26T01:20:23;33.08;;;6.78;;
48534;SDS011;34323;52.022;5.686;2023-03-26T01:22:54;33.00;;;5.53;;
48534;SDS011;34323;52.022;5.686;2023-03-26T01:25:29;33.80;;;6.25;;
48534;SDS011;34323;52.022;5.686;2023-03-26T01:27:58;31.38;;;7.10;;
48534;SDS011;34323;52.022;5.686;2023-03-26T01:30:36;31.83;;;6.32;;
48534;SDS011;34323;52.022;5.686;2023-03-26T01:33:12;34.28;;;6.07;;
48534;SDS011;34323;52.022;5.686;2023-03-26T01:46:52;45.42;;;6.57;;
48534;SDS011;34323;52.022;5.686;2023-03-26T01:49:19;20.83;;;5.63;;
48534;SDS011;34323;52.022;5.686;2023-03-26T01:51:45;38.97;;;7.93;;
48534;SDS011;34323;52.022;5.686;2023-03-26T01:54:21;35.50;;;6.53;;
48534;SDS011;34323;52.022;5.686;2023-03-26T01:56:50;38.58;;;7.05;;
48534;SDS011;34323;52.022;5.686;2023-03-26T02:05:33;38.08;;;6.72;;
48534;SDS011;34323;52.022;5.686;2023-03-26T02:10:56;39.25;;;6.85;;
48534;SDS011;34323;52.022;5.686;2023-03-26T02:13:23;37.65;;;6.43;;
48534;SDS011;34323;52.022;5.686;2023-03-26T02:16:10;41.25;;;6.15;;
48534;SDS011;34323;52.022;5.686;2023-03-26T02:18:41;44.90;;;6.18;;
48534;SDS011;34323;52.022;5.686;2023-03-26T02:21:12;45.08;;;7.07;;
48534;SDS011;34323;52.022;5.686;2023-03-26T02:23:49;32.55;;;6.20;;
48534;SDS011;34323;52.022;5.686;2023-03-26T02:26:21;42.65;;;7.32;;
48534;SDS011;34323;52.022;5.686;2023-03-26T02:28:47;36.92;;;6.30;;
48534;SDS011;34323;52.022;5.686;2023-03-26T02:31:13;33.47;;;5.82;;
48534;SDS011;34323;52.022;5.686;2023-03-26T02:33:40;46.95;;;7.32;;
48534;SDS011;34323;52.022;5.686;2023-03-26T02:36:05;39.72;;;6.18;;
48534;SDS011;34323;52.022;5.686;2023-03-26T02:38:32;32.17;;;5.95;;
48534;SDS011;34323;52.022;5.686;2023-03-26T02:40:59;50.83;;;6.45;;
48534;SDS011;34323;52.022;5.686;2023-03-26T02:43:25;37.50;;;5.78;;
48534;SDS011;34323;52.022;5.686;2023-03-26T02:45:51;41.42;;;6.47;;
48534;SDS011;34323;52.022;5.686;2023-03-26T02:48:17;30.40;;;5.80;;
48534;SDS011;34323;52.022;5.686;2023-03-26T02:50:44;30.98;;;5.70;;
48534;SDS011;34323;52.022;5.686;2023-03-26T02:53:10;39.88;;;6.20;;
48534;SDS011;34323;52.022;5.686;2023-03-26T02:55:36;49.53;;;7.13;;
48534;SDS011;34323;52.022;5.686;2023-03-26T02:58:02;31.85;;;6.13;;
48534;SDS011;34323;52.022;5.686;2023-03-26T03:00:27;38.78;;;6.57;;
48534;SDS011;34323;52.022;5.686;2023-03-26T03:02:53;38.70;;;6.03;;
48534;SDS011;34323;52.022;5.686;2023-03-26T03:05:22;37.92;;;8.10;;
48534;SDS011;34323;52.022;5.686;2023-03-26T03:07:51;41.20;;;5.70;;
48534;SDS011;34323;52.022;5.686;2023-03-26T03:10:22;35.80;;;6.65;;
48534;SDS011;34323;52.022;5.686;2023-03-26T03:12:52;25.55;;;6.57;;
48534;SDS011;34323;52.022;5.686;2023-03-26T03:15:18;31.73;;;7.07;;
48534;SDS011;34323;52.022;5.686;2023-03-26T03:17:44;33.28;;;8.98;;
48534;SDS011;34323;52.022;5.686;2023-03-26T03:20:10;50.45;;;9.93;;
48534;SDS011;34323;52.022;5.686;2023-03-26T03:22:37;43.92;;;9.68;;
48534;SDS011;34323;52.022;5.686;2023-03-26T03:25:03;36.88;;;7.88;;
48534;SDS011;34323;52.022;5.686;2023-03-26T03:27:29;44.50;;;8.25;;
48534;SDS011;34323;52.022;5.686;2023-03-26T03:29:55;43.05;;;8.70;;
48534;SDS011;34323;52.022;5.686;2023-03-26T03:32:22;36.63;;;8.98;;
48534;SDS011;34323;52.022;5.686;2023-03-26T03:34:49;51.13;;;9.10;;
48534;SDS011;34323;52.022;5.686;2023-03-26T03:37:15;42.80;;;9.95;;
48534;SDS011;34323;52.022;5.686;2023-03-26T03:39:42;37.20;;;9.18;;
48534;SDS011;34323;52.022;5.686;2023-03-26T03:42:07;35.95;;;9.05;;
48534;SDS011;34323;52.022;5.686;2023-03-26T03:44:33;30.63;;;8.27;;
48534;SDS011;34323;52.022;5.686;2023-03-26T03:46:59;33.45;;;8.88;;
48534;SDS011;34323;52.022;5.686;2023-03-26T03:49:25;34.78;;;8.57;;
48534;SDS011;34323;52.022;5.686;2023-03-26T03:51:50;33.40;;;10.00;;
48534;SDS011;34323;52.022;5.686;2023-03-26T03:54:16;41.08;;;9.77;;
48534;SDS011;34323;52.022;5.686;2023-03-26T03:56:41;39.00;;;8.90;;
48534;SDS011;34323;52.022;5.686;2023-03-26T03:59:09;35.45;;;8.45;;
48534;SDS011;34323;52.022;5.686;2023-03-26T04:01:35;33.60;;;8.10;;
48534;SDS011;34323;52.022;5.686;2023-03-26T04:04:01;38.60;;;8.80;;
48534;SDS011;34323;52.022;5.686;2023-03-26T04:06:27;27.48;;;6.47;;
48534;SDS011;34323;52.022;5.686;2023-03-26T04:08:54;30.27;;;8.75;;
48534;SDS011;34323;52.022;5.686;2023-03-26T04:11:22;31.80;;;8.38;;
48534;SDS011;34323;52.022;5.686;2023-03-26T04:13:48;28.63;;;6.95;;
48534;SDS011;34323;52.022;5.686;2023-03-26T04:16:13;22.67;;;7.47;;
48534;SDS011;34323;52.022;5.686;2023-03-26T04:18:39;36.88;;;7.78;;
48534;SDS011;34323;52.022;5.686;2023-03-26T04:21:05;24.55;;;6.47;;
48534;SDS011;34323;52.022;5.686;2023-03-26T04:23:31;29.35;;;7.00;;
48534;SDS011;34323;52.022;5.686;2023-03-26T04:25:59;20.38;;;6.10;;
48534;SDS011;34323;52.022;5.686;2023-03-26T04:28:32;34.60;;;6.35;;
48534;SDS011;34323;52.022;5.686;2023-03-26T04:31:07;35.13;;;7.00;;
48534;SDS011;34323;52.022;5.686;2023-03-26T04:33:36;39.28;;;8.05;;
48534;SDS011;34323;52.022;5.686;2023-03-26T04:36:03;33.92;;;6.00;;
48534;SDS011;34323;52.022;5.686;2023-03-26T04:38:30;29.08;;;6.65;;
48534;SDS011;34323;52.022;5.686;2023-03-26T04:41:01;34.00;;;6.55;;
48534;SDS011;34323;52.022;5.686;2023-03-26T04:43:27;19.10;;;5.78;;
48534;SDS011;34323;52.022;5.686;2023-03-26T04:45:54;29.65;;;6.65;;
48534;SDS011;34323;52.022;5.686;2023-03-26T04:48:20;30.67;;;5.32;;
48534;SDS011;34323;52.022;5.686;2023-03-26T04:50:46;24.38;;;5.93;;
48534;SDS011;34323;52.022;5.686;2023-03-26T04:53:14;22.55;;;5.70;;
48534;SDS011;34323;52.022;5.686;2023-03-26T04:55:44;22.13;;;6.43;;
48534;SDS011;34323;52.022;5.686;2023-03-26T04:58:25;13.48;;;5.03;;
48534;SDS011;34323;52.022;5.686;2023-03-26T05:00:56;29.58;;;7.13;;
48534;SDS011;34323;52.022;5.686;2023-03-26T05:03:26;16.05;;;5.00;;
48534;SDS011;34323;52.022;5.686;2023-03-26T05:05:59;25.63;;;4.72;;
48534;SDS011;34323;52.022;5.686;2023-03-26T05:08:25;22.08;;;5.55;;
48534;SDS011;34323;52.022;5.686;2023-03-26T05:10:53;22.08;;;6.68;;
48534;SDS011;34323;52.022;5.686;2023-03-26T05:13:20;25.35;;;6.30;;
48534;SDS011;34323;52.022;5.686;2023-03-26T05:15:46;22.58;;;5.70;;
48534;SDS011;34323;52.022;5.686;2023-03-26T05:18:11;25.73;;;5.55;;
48534;SDS011;34323;52.022;5.686;2023-03-26T05:20:37;26.42;;;6.00;;
48534;SDS011;34323;52.022;5.686;2023-03-26T05:23:04;27.45;;;5.57;;
48534;SDS011;34323;52.022;5.686;2023-03-26T05:25:29;19.27;;;5.68;;
48534;SDS011;34323;52.022;5.686;2023-03-26T05:27:55;26.80;;;6.35;;
48534;SDS011;34323;52.022;5.686;2023-03-26T05:30:21;31.63;;;6.85;;
48534;SDS011;34323;52.022;5.686;2023-03-26T05:32:47;22.77;;;5.05;;
48534;SDS011;34323;52.022;5.686;2023-03-26T05:35:13;18.08;;;4.63;;
48534;SDS011;34323;52.022;5.686;2023-03-26T05:37:41;14.93;;;5.13;;
48534;SDS011;34323;52.022;5.686;2023-03-26T05:40:08;27.88;;;6.05;;
48534;SDS011;34323;52.022;5.686;2023-03-26T05:42:36;19.33;;;5.50;;
48534;SDS011;34323;52.022;5.686;2023-03-26T05:45:03;24.85;;;5.68;;
48534;SDS011;34323;52.022;5.686;2023-03-26T05:47:31;21.80;;;5.93;;
48534;SDS011;34323;52.022;5.686;2023-03-26T05:49:56;21.85;;;5.28;;
48534;SDS011;34323;52.022;5.686;2023-03-26T05:52:22;22.30;;;5.43;;
48534;SDS011;34323;52.022;5.686;2023-03-26T05:54:48;23.50;;;6.32;;
48534;SDS011;34323;52.022;5.686;2023-03-26T05:57:13;28.13;;;5.00;;
48534;SDS011;34323;52.022;5.686;2023-03-26T05:59:39;14.68;;;4.63;;
48534;SDS011;34323;52.022;5.686;2023-03-26T06:02:05;26.67;;;5.78;;
48534;SDS011;34323;52.022;5.686;2023-03-26T06:04:31;27.27;;;5.40;;
48534;SDS011;34323;52.022;5.686;2023-03-26T06:06:57;20.45;;;5.65;;
48534;SDS011;34323;52.022;5.686;2023-03-26T06:09:22;23.23;;;4.80;;
48534;SDS011;34323;52.022;5.686;2023-03-26T06:11:48;25.08;;;5.78;;
48534;SDS011;34323;52.022;5.686;2023-03-26T06:14:14;22.35;;;4.22;;
48534;SDS011;34323;52.022;5.686;2023-03-26T06:16:39;17.67;;;4.70;;
48534;SDS011;34323;52.022;5.686;2023-03-26T06:19:05;20.45;;;4.50;;
48534;SDS011;34323;52.022;5.686;2023-03-26T06:21:31;28.05;;;5.15;;
48534;SDS011;34323;52.022;5.686;2023-03-26T06:23:56;19.45;;;4.95;;
48534;SDS011;34323;52.022;5.686;2023-03-26T06:26:22;22.08;;;5.85;;
48534;SDS011;34323;52.022;5.686;2023-03-26T06:28:47;20.67;;;4.80;;
48534;SDS011;34323;52.022;5.686;2023-03-26T06:31:13;28.00;;;4.47;;
48534;SDS011;34323;52.022;5.686;2023-03-26T06:33:41;26.60;;;5.43;;
48534;SDS011;34323;52.022;5.686;2023-03-26T06:36:06;22.30;;;4.40;;
48534;SDS011;34323;52.022;5.686;2023-03-26T06:38:32;24.17;;;4.30;;
48534;SDS011;34323;52.022;5.686;2023-03-26T06:41:02;16.00;;;4.13;;
48534;SDS011;34323;52.022;5.686;2023-03-26T06:43:28;19.52;;;4.25;;
48534;SDS011;34323;52.022;5.686;2023-03-26T06:45:57;19.67;;;3.92;;
48534;SDS011;34323;52.022;5.686;2023-03-26T06:48:26;22.25;;;4.00;;
48534;SDS011;34323;52.022;5.686;2023-03-26T06:50:52;21.80;;;4.43;;
48534;SDS011;34323;52.022;5.686;2023-03-26T06:53:18;27.55;;;5.15;;
48534;SDS011;34323;52.022;5.686;2023-03-26T06:55:43;11.65;;;4.35;;
48534;SDS011;34323;52.022;5.686;2023-03-26T06:58:12;16.35;;;5.00;;
48534;SDS011;34323;52.022;5.686;2023-03-26T07:00:38;20.95;;;4.07;;
48534;SDS011;34323;52.022;5.686;2023-03-26T07:03:04;22.23;;;3.42;;
48534;SDS011;34323;52.022;5.686;2023-03-26T07:05:30;20.02;;;4.15;;
48534;SDS011;34323;52.022;5.686;2023-03-26T07:07:56;29.80;;;5.53;;
48534;SDS011;34323;52.022;5.686;2023-03-26T07:10:21;31.58;;;4.78;;
48534;SDS011;34323;52.022;5.686;2023-03-26T07:12:47;23.98;;;3.97;;
48534;SDS011;34323;52.022;5.686;2023-03-26T07:15:13;14.73;;;4.28;;
48534;SDS011;34323;52.022;5.686;2023-03-26T07:17:39;22.05;;;4.30;;
48534;SDS011;34323;52.022;5.686;2023-03-26T07:20:05;20.15;;;4.40;;
48534;SDS011;34323;52.022;5.686;2023-03-26T07:22:32;22.17;;;4.28;;
48534;SDS011;34323;52.022;5.686;2023-03-26T07:24:58;20.35;;;4.13;;
48534;SDS011;34323;52.022;5.686;2023-03-26T07:27:34;27.20;;;4.85;;
48534;SDS011;34323;52.022;5.686;2023-03-26T07:33:42;29.58;;;4.80;;
48534;SDS011;34323;52.022;5.686;2023-03-26T07:36:18;31.02;;;5.43;;
48534;SDS011;34323;52.022;5.686;2023-03-26T07:41:54;23.70;;;5.72;;
48534;SDS011;34323;52.022;5.686;2023-03-26T07:47:28;29.95;;;5.38;;
48534;SDS011;34323;52.022;5.686;2023-03-26T07:49:56;26.83;;;5.77;;
48534;SDS011;34323;52.022;5.686;2023-03-26T07:52:23;32.72;;;4.63;;
48534;SDS011;34323;52.022;5.686;2023-03-26T07:54:49;36.45;;;5.22;;
48534;SDS011;34323;52.022;5.686;2023-03-26T07:57:18;28.67;;;5.75;;
48534;SDS011;34323;52.022;5.686;2023-03-26T08:00:03;32.08;;;6.68;;
48534;SDS011;34323;52.022;5.686;2023-03-26T08:05:25;18.40;;;5.38;;
48534;SDS011;34323;52.022;5.686;2023-03-26T08:08:07;20.02;;;6.25;;
48534;SDS011;34323;52.022;5.686;2023-03-26T08:16:11;28.50;;;6.30;;
48534;SDS011;34323;52.022;5.686;2023-03-26T08:21:16;28.48;;;6.63;;
48534;SDS011;34323;52.022;5.686;2023-03-26T08:23:59;29.30;;;6.93;;
48534;SDS011;34323;52.022;5.686;2023-03-26T08:31:51;18.08;;;6.10;;
48534;SDS011;34323;52.022;5.686;2023-03-26T08:34:18;29.05;;;6.63;;
48534;SDS011;34323;52.022;5.686;2023-03-26T08:36:44;30.63;;;7.55;;
48534;SDS011;34323;52.022;5.686;2023-03-26T08:39:10;27.65;;;7.05;;
48534;SDS011;34323;52.022;5.686;2023-03-26T08:44:43;20.10;;;7.55;;
48534;SDS011;34323;52.022;5.686;2023-03-26T08:47:21;29.05;;;7.80;;
48534;SDS011;34323;52.022;5.686;2023-03-26T08:55:52;28.27;;;6.78;;
48534;SDS011;34323;52.022;5.686;2023-03-26T09:04:19;29.13;;;7.45;;
48534;SDS011;34323;52.022;5.686;2023-03-26T09:07:24;26.60;;;8.20;;
48534;SDS011;34323;52.022;5.686;2023-03-26T09:10:15;27.63;;;7.68;;
48534;SDS011;34323;52.022;5.686;2023-03-26T09:13:18;26.73;;;6.95;;
48534;SDS011;34323;52.022;5.686;2023-03-26T09:33:54;25.00;;;7.72;;
48534;SDS011;34323;52.022;5.686;2023-03-26T09:44:53;16.35;;;8.02;;
48534;SDS011;34323;52.022;5.686;2023-03-26T09:56:25;17.08;;;8.45;;
48534;SDS011;34323;52.022;5.686;2023-03-26T10:10:21;23.63;;;7.60;;
48534;SDS011;34323;52.022;5.686;2023-03-26T10:15:48;14.48;;;7.07;;
48534;SDS011;34323;52.022;5.686;2023-03-26T10:30:57;14.50;;;5.40;;
48534;SDS011;34323;52.022;5.686;2023-03-26T10:33:34;17.17;;;6.80;;
48534;SDS011;34323;52.022;5.686;2023-03-26T10:36:14;12.48;;;6.18;;
48534;SDS011;34323;52.022;5.686;2023-03-26T10:38:50;12.93;;;4.97;;
48534;SDS011;34323;52.022;5.686;2023-03-26T10:47:25;11.70;;;5.72;;
48534;SDS011;34323;52.022;5.686;2023-03-26T10:52:39;12.38;;;6.10;;
48534;SDS011;34323;52.022;5.686;2023-03-26T10:55:18;13.27;;;6.20;;
48534;SDS011;34323;52.022;5.686;2023-03-26T10:57:58;14.32;;;7.28;;
48534;SDS011;34323;52.022;5.686;2023-03-26T11:00:28;12.55;;;7.78;;
48534;SDS011;34323;52.022;5.686;2023-03-26T11:05:43;17.45;;;9.18;;
48534;SDS011;34323;52.022;5.686;2023-03-26T11:16:46;22.42;;;9.10;;
48534;SDS011;34323;52.022;5.686;2023-03-26T11:19:40;21.77;;;8.68;;
48534;SDS011;34323;52.022;5.686;2023-03-26T11:28:00;21.95;;;8.98;;
48534;SDS011;34323;52.022;5.686;2023-03-26T11:33:05;19.67;;;8.75;;
48534;SDS011;34323;52.022;5.686;2023-03-26T11:35:38;23.35;;;9.30;;
48534;SDS011;34323;52.022;5.686;2023-03-26T11:40:57;16.05;;;7.75;;
48534;SDS011;34323;52.022;5.686;2023-03-26T11:43:30;15.77;;;7.10;;
48534;SDS011;34323;52.022;5.686;2023-03-26T11:46:00;15.27;;;7.65;;
48534;SDS011;34323;52.022;5.686;2023-03-26T11:48:34;21.42;;;7.88;;
48534;SDS011;34323;52.022;5.686;2023-03-26T11:51:07;20.48;;;7.68;;
48534;SDS011;34323;52.022;5.686;2023-03-26T11:53:36;20.90;;;6.88;;
48534;SDS011;34323;52.022;5.686;2023-03-26T11:56:08;16.80;;;7.13;;
48534;SDS011;34323;52.022;5.686;2023-03-26T12:01:51;14.93;;;5.85;;
48534;SDS011;34323;52.022;5.686;2023-03-26T12:07:15;22.67;;;5.75;;
48534;SDS011;34323;52.022;5.686;2023-03-26T12:09:55;13.73;;;5.13;;
48534;SDS011;34323;52.022;5.686;2023-03-26T12:12:27;21.70;;;4.72;;
48534;SDS011;34323;52.022;5.686;2023-03-26T12:14:58;17.30;;;4.63;;
48534;SDS011;34323;52.022;5.686;2023-03-26T12:17:35;14.27;;;4.97;;
48534;SDS011;34323;52.022;5.686;2023-03-26T12:20:20;15.48;;;4.05;;
48534;SDS011;34323;52.022;5.686;2023-03-26T12:22:59;20.08;;;4.47;;
48534;SDS011;34323;52.022;5.686;2023-03-26T12:25:27;16.95;;;4.43;;
48534;SDS011;34323;52.022;5.686;2023-03-26T12:30:28;18.42;;;4.18;;
48534;SDS011;34323;52.022;5.686;2023-03-26T12:33:03;17.52;;;4.35;;
48534;SDS011;34323;52.022;5.686;2023-03-26T12:35:31;21.73;;;4.20;;
48534;SDS011;34323;52.022;5.686;2023-03-26T12:41:02;12.70;;;3.20;;
48534;SDS011;34323;52.022;5.686;2023-03-26T12:43:51;13.75;;;3.53;;
48534;SDS011;34323;52.022;5.686;2023-03-26T12:48:50;13.63;;;4.20;;
48534;SDS011;34323;52.022;5.686;2023-03-26T12:56:33;18.17;;;3.88;;
48534;SDS011;34323;52.022;5.686;2023-03-26T13:04:50;12.18;;;4.07;;
48534;SDS011;34323;52.022;5.686;2023-03-26T13:13:21;11.20;;;4.15;;
48534;SDS011;34323;52.022;5.686;2023-03-26T13:16:23;13.65;;;3.75;;
48534;SDS011;34323;52.022;5.686;2023-03-26T13:19:22;19.58;;;4.00;;
48534;SDS011;34323;52.022;5.686;2023-03-26T13:25:12;11.57;;;3.20;;
48534;SDS011;34323;52.022;5.686;2023-03-26T13:27:52;10.63;;;3.67;;
48534;SDS011;34323;52.022;5.686;2023-03-26T13:36:04;14.10;;;3.17;;
48534;SDS011;34323;52.022;5.686;2023-03-26T13:47:09;23.90;;;2.92;;
48534;SDS011;34323;52.022;5.686;2023-03-26T13:49:43;9.70;;;2.05;;
48534;SDS011;34323;52.022;5.686;2023-03-26T13:58:02;20.02;;;2.78;;
48534;SDS011;34323;52.022;5.686;2023-03-26T14:00:50;10.40;;;2.97;;
48534;SDS011;34323;52.022;5.686;2023-03-26T14:06:27;11.20;;;2.28;;
48534;SDS011;34323;52.022;5.686;2023-03-26T14:09:00;14.13;;;2.72;;
48534;SDS011;34323;52.022;5.686;2023-03-26T14:14:11;18.77;;;2.35;;
48534;SDS011;34323;52.022;5.686;2023-03-26T14:16:47;11.18;;;2.17;;
48534;SDS011;34323;52.022;5.686;2023-03-26T14:19:24;11.73;;;2.50;;
48534;SDS011;34323;52.022;5.686;2023-03-26T14:22:07;15.60;;;2.72;;
48534;SDS011;34323;52.022;5.686;2023-03-26T14:24:52;10.18;;;1.75;;
48534;SDS011;34323;52.022;5.686;2023-03-26T14:30:30;5.70;;;1.95;;
48534;SDS011;34323;52.022;5.686;2023-03-26T14:35:59;9.15;;;2.17;;
48534;SDS011;34323;52.022;5.686;2023-03-26T14:46:59;11.32;;;1.60;;
48534;SDS011;34323;52.022;5.686;2023-03-26T14:54:38;7.25;;;1.35;;
48534;SDS011;34323;52.022;5.686;2023-03-26T15:11:24;19.55;;;2.63;;
48534;SDS011;34323;52.022;5.686;2023-03-26T15:25:38;16.95;;;2.38;;
48534;SDS011;34323;52.022;5.686;2023-03-26T15:33:50;11.27;;;3.60;;
48534;SDS011;34323;52.022;5.686;2023-03-26T15:39:52;12.38;;;2.35;;
48534;SDS011;34323;52.022;5.686;2023-03-26T15:42:36;17.23;;;2.20;;
48534;SDS011;34323;52.022;5.686;2023-03-26T15:45:31;6.95;;;1.83;;
48534;SDS011;34323;52.022;5.686;2023-03-26T15:48:12;15.65;;;2.42;;
48534;SDS011;34323;52.022;5.686;2023-03-26T16:01:26;10.02;;;2.28;;
48534;SDS011;34323;52.022;5.686;2023-03-26T16:04:16;8.25;;;2.00;;
48534;SDS011;34323;52.022;5.686;2023-03-26T16:06:59;12.57;;;2.63;;
48534;SDS011;34323;52.022;5.686;2023-03-26T16:15:29;8.23;;;2.40;;
48534;SDS011;34323;52.022;5.686;2023-03-26T16:20:42;7.57;;;1.67;;
48534;SDS011;34323;52.022;5.686;2023-03-26T16:23:19;12.60;;;1.67;;
48534;SDS011;34323;52.022;5.686;2023-03-26T16:25:59;19.50;;;2.10;;
48534;SDS011;34323;52.022;5.686;2023-03-26T16:33:43;9.98;;;1.63;;
48534;SDS011;34323;52.022;5.686;2023-03-26T16:36:43;7.32;;;2.00;;
48534;SDS011;34323;52.022;5.686;2023-03-26T16:39:11;10.15;;;1.63;;
48534;SDS011;34323;52.022;5.686;2023-03-26T16:42:00;9.30;;;2.03;;
48534;SDS011;34323;52.022;5.686;2023-03-26T16:44:42;10.13;;;1.92;;
48534;SDS011;34323;52.022;5.686;2023-03-26T16:47:29;15.18;;;1.90;;
48534;SDS011;34323;52.022;5.686;2023-03-26T17:01:07;6.68;;;2.05;;
48534;SDS011;34323;52.022;5.686;2023-03-26T17:03:56;16.25;;;2.83;;
48534;SDS011;34323;52.022;5.686;2023-03-26T17:11:52;7.68;;;1.50;;
48534;SDS011;34323;52.022;5.686;2023-03-26T17:14:50;13.73;;;2.03;;
48534;SDS011;34323;52.022;5.686;2023-03-26T17:20:22;13.55;;;2.03;;
48534;SDS011;34323;52.022;5.686;2023-03-26T17:25:55;20.38;;;2.03;;
48534;SDS011;34323;52.022;5.686;2023-03-26T17:31:04;10.27;;;2.22;;
48534;SDS011;34323;52.022;5.686;2023-03-26T17:33:47;9.95;;;2.22;;
48534;SDS011;34323;52.022;5.686;2023-03-26T17:36:15;13.18;;;2.90;;
48534;SDS011;34323;52.022;5.686;2023-03-26T17:41:14;13.70;;;2.65;;
48534;SDS011;34323;52.022;5.686;2023-03-26T17:44:49;12.60;;;2.63;;
48534;SDS011;34323;52.022;5.686;2023-03-26T17:47:26;8.00;;;2.05;;
48534;SDS011;34323;52.022;5.686;2023-03-26T17:49:58;9.40;;;1.65;;
48534;SDS011;34323;52.022;5.686;2023-03-26T17:55:33;4.78;;;1.35;;
48534;SDS011;34323;52.022;5.686;2023-03-26T17:58:03;9.50;;;2.33;;
48534;SDS011;34323;52.022;5.686;2023-03-26T18:00:53;9.90;;;1.73;;
48534;SDS011;34323;52.022;5.686;2023-03-26T18:03:27;11.38;;;2.08;;
48534;SDS011;34323;52.022;5.686;2023-03-26T18:06:02;10.27;;;1.70;;
48534;SDS011;34323;52.022;5.686;2023-03-26T18:08:40;13.05;;;2.15;;
48534;SDS011;34323;52.022;5.686;2023-03-26T18:17:20;6.18;;;1.95;;
48534;SDS011;34323;52.022;5.686;2023-03-26T18:19:51;9.30;;;2.08;;
48534;SDS011;34323;52.022;5.686;2023-03-26T18:22:19;8.20;;;2.40;;
48534;SDS011;34323;52.022;5.686;2023-03-26T18:24:49;16.30;;;2.53;;
48534;SDS011;34323;52.022;5.686;2023-03-26T18:27:17;4.72;;;2.47;;
48534;SDS011;34323;52.022;5.686;2023-03-26T18:32:36;8.43;;;1.67;;
48534;SDS011;34323;52.022;5.686;2023-03-26T18:35:18;14.65;;;2.25;;
48534;SDS011;34323;52.022;5.686;2023-03-26T18:37:45;6.40;;;1.65;;
48534;SDS011;34323;52.022;5.686;2023-03-26T18:40:14;8.45;;;1.55;;
48534;SDS011;34323;52.022;5.686;2023-03-26T18:42:53;6.65;;;1.20;;
48534;SDS011;34323;52.022;5.686;2023-03-26T18:47:53;10.10;;;2.05;;
48534;SDS011;34323;52.022;5.686;2023-03-26T18:50:31;7.20;;;1.70;;
48534;SDS011;34323;52.022;5.686;2023-03-26T18:53:00;5.88;;;1.30;;
48534;SDS011;34323;52.022;5.686;2023-03-26T18:55:29;11.55;;;1.42;;
48534;SDS011;34323;52.022;5.686;2023-03-26T18:57:57;9.60;;;2.30;;
48534;SDS011;34323;52.022;5.686;2023-03-26T19:00:26;7.22;;;1.30;;
48534;SDS011;34323;52.022;5.686;2023-03-26T19:03:04;5.90;;;2.00;;
48534;SDS011;34323;52.022;5.686;2023-03-26T19:05:31;6.22;;;1.20;;
48534;SDS011;34323;52.022;5.686;2023-03-26T19:07:59;10.73;;;2.13;;
48534;SDS011;34323;52.022;5.686;2023-03-26T19:10:30;14.77;;;1.70;;
48534;SDS011;34323;52.022;5.686;2023-03-26T19:12:57;7.07;;;1.77;;
48534;SDS011;34323;52.022;5.686;2023-03-26T19:15:26;8.43;;;1.67;;
48534;SDS011;34323;52.022;5.686;2023-03-26T19:17:58;7.70;;;1.55;;
48534;SDS011;34323;52.022;5.686;2023-03-26T19:20:43;8.07;;;1.83;;
48534;SDS011;34323;52.022;5.686;2023-03-26T19:23:12;7.07;;;1.65;;
48534;SDS011;34323;52.022;5.686;2023-03-26T19:25:44;10.38;;;1.52;;
48534;SDS011;34323;52.022;5.686;2023-03-26T19:28:17;16.63;;;1.88;;
48534;SDS011;34323;52.022;5.686;2023-03-26T19:33:40;11.35;;;2.00;;
48534;SDS011;34323;52.022;5.686;2023-03-26T19:38:49;8.10;;;1.50;;
48534;SDS011;34323;52.022;5.686;2023-03-26T19:41:24;8.25;;;1.58;;
48534;SDS011;34323;52.022;5.686;2023-03-26T19:43:54;21.42;;;2.70;;
48534;SDS011;34323;52.022;5.686;2023-03-26T19:46:24;7.25;;;1.45;;
48534;SDS011;34323;52.022;5.686;2023-03-26T19:48:52;12.00;;;2.72;;
48534;SDS011;34323;52.022;5.686;2023-03-26T19:51:20;12.40;;;1.98;;
48534;SDS011;34323;52.022;5.686;2023-03-26T19:53:53;17.90;;;2.78;;
48534;SDS011;34323;52.022;5.686;2023-03-26T19:56:22;6.75;;;1.77;;
48534;SDS011;34323;52.022;5.686;2023-03-26T19:58:48;9.80;;;2.22;;
48534;SDS011;34323;52.022;5.686;2023-03-26T20:01:21;11.05;;;2.60;;
48534;SDS011;34323;52.022;5.686;2023-03-26T20:03:49;5.57;;;1.67;;
48534;SDS011;34323;52.022;5.686;2023-03-26T20:06:17;15.25;;;2.85;;
48534;SDS011;34323;52.022;5.686;2023-03-26T20:08:45;9.45;;;1.50;;
48534;SDS011;34323;52.022;5.686;2023-03-26T20:11:18;8.30;;;2.08;;
48534;SDS011;34323;52.022;5.686;2023-03-26T20:13:45;6.85;;;1.42;;
48534;SDS011;34323;52.022;5.686;2023-03-26T20:18:50;3.35;;;1.45;;
48534;SDS011;34323;52.022;5.686;2023-03-26T20:21:17;5.72;;;1.73;;
48534;SDS011;34323;52.022;5.686;2023-03-26T20:23:43;13.75;;;1.88;;
48534;SDS011;34323;52.022;5.686;2023-03-26T20:26:13;13.13;;;3.38;;
48534;SDS011;34323;52.022;5.686;2023-03-26T20:28:40;8.30;;;1.40;;
48534;SDS011;34323;52.022;5.686;2023-03-26T20:31:17;8.73;;;1.75;;
48534;SDS011;34323;52.022;5.686;2023-03-26T20:33:46;8.43;;;2.95;;
48534;SDS011;34323;52.022;5.686;2023-03-26T20:36:13;6.10;;;1.60;;
48534;SDS011;34323;52.022;5.686;2023-03-26T20:38:39;11.68;;;2.45;;
48534;SDS011;34323;52.022;5.686;2023-03-26T20:41:11;8.52;;;3.00;;
48534;SDS011;34323;52.022;5.686;2023-03-26T20:43:38;9.25;;;2.47;;
48534;SDS011;34323;52.022;5.686;2023-03-26T20:46:04;16.60;;;2.63;;